createdAt,value
2017-09-10T00:00:17.439Z,10.86
2017-09-10T00:01:05.403Z,10.87
2017-09-10T00:01:54.392Z,10.82
2017-09-10T00:02:42.432Z,10.80
2017-09-10T00:03:30.505Z,10.84
2017-09-10T00:04:19.527Z,10.82
2017-09-10T00:05:07.517Z,10.82
2017-09-10T00:05:55.890Z,10.78
2017-09-10T00:06:44.896Z,10.75
2017-09-10T00:07:32.609Z,10.73
2017-09-10T00:08:20.725Z,10.70
2017-09-10T00:09:08.763Z,10.68
2017-09-10T00:09:56.788Z,10.67
2017-09-10T00:10:45.161Z,10.63
2017-09-10T00:11:32.870Z,10.64
2017-09-10T00:12:20.878Z,10.66
2017-09-10T00:13:15.002Z,10.68
2017-09-10T00:14:03.030Z,10.68
2017-09-10T00:14:50.997Z,10.70
2017-09-10T00:15:40.102Z,10.68
2017-09-10T00:16:28.152Z,10.66
2017-09-10T00:17:17.190Z,10.70
2017-09-10T00:18:05.194Z,10.72
2017-09-10T00:18:53.335Z,10.70
2017-09-10T00:19:42.244Z,10.70
2017-09-10T00:20:30.401Z,10.67
2017-09-10T00:21:18.324Z,10.67
2017-09-10T00:22:07.472Z,10.68
2017-09-10T00:22:55.437Z,10.66
2017-09-10T00:23:43.482Z,10.64
2017-09-10T00:24:32.484Z,10.63
2017-09-10T00:25:20.540Z,10.59
2017-09-10T00:26:08.634Z,10.56
2017-09-10T00:26:57.663Z,10.58
2017-09-10T00:27:45.722Z,10.56
2017-09-10T00:28:33.771Z,10.60
2017-09-10T00:29:22.778Z,10.59
2017-09-10T00:30:10.780Z,10.59
2017-09-10T00:30:58.779Z,10.59
2017-09-10T00:31:47.924Z,10.59
2017-09-10T00:32:35.965Z,10.57
2017-09-10T00:33:23.955Z,10.57
2017-09-10T00:34:13.029Z,10.58
2017-09-10T00:35:01.067Z,10.59
2017-09-10T00:35:49.163Z,10.57
2017-09-10T00:36:37.171Z,10.56
2017-09-10T00:37:26.173Z,10.56
2017-09-10T00:38:14.171Z,10.56
2017-09-10T00:39:03.274Z,10.54
2017-09-10T00:39:51.340Z,10.52
2017-09-10T00:40:39.491Z,10.49
2017-09-10T00:41:28.408Z,10.50
2017-09-10T00:42:16.406Z,10.48
2017-09-10T00:43:04.442Z,10.46
2017-09-10T00:43:53.514Z,10.45
2017-09-10T00:44:41.537Z,10.44
2017-09-10T00:45:29.748Z,10.40
2017-09-10T00:46:18.700Z,10.38
2017-09-10T00:47:06.727Z,10.38
2017-09-10T00:47:54.692Z,10.34
2017-09-10T00:48:43.785Z,10.32
2017-09-10T00:49:31.779Z,10.32
2017-09-10T00:50:19.821Z,10.28
2017-09-10T00:51:08.860Z,10.30
2017-09-10T00:51:56.951Z,10.30
2017-09-10T00:52:44.943Z,10.26
2017-09-10T00:53:34.278Z,10.24
2017-09-10T00:54:22.038Z,10.27
2017-09-10T00:55:10.042Z,10.27
2017-09-10T00:55:59.184Z,10.28
2017-09-10T00:56:47.110Z,10.26
2017-09-10T00:57:35.488Z,10.30
2017-09-10T00:58:23.226Z,10.29
2017-09-10T00:59:12.224Z,10.32
2017-09-10T01:00:00.305Z,10.31
2017-09-10T01:00:49.579Z,10.25
2017-09-10T01:01:37.346Z,10.23
2017-09-10T01:02:25.541Z,10.22
2017-09-10T01:03:14.446Z,10.18
2017-09-10T01:04:02.561Z,10.19
2017-09-10T01:04:50.513Z,10.17
2017-09-10T01:05:39.849Z,10.18
2017-09-10T01:06:27.869Z,10.17
2017-09-10T01:07:15.621Z,10.20
2017-09-10T01:08:04.699Z,10.23
2017-09-10T01:08:52.722Z,10.24
2017-09-10T01:09:40.767Z,10.24
2017-09-10T01:10:29.850Z,10.22
2017-09-10T01:11:17.898Z,10.22
2017-09-10T01:12:05.963Z,10.22
2017-09-10T01:12:54.998Z,10.25
2017-09-10T01:13:42.967Z,10.26
2017-09-10T01:14:31.108Z,10.24
2017-09-10T01:15:20.002Z,10.20
2017-09-10T01:16:07.997Z,10.21
2017-09-10T01:16:56.123Z,10.22
2017-09-10T01:17:45.264Z,10.24
2017-09-10T01:18:39.138Z,10.32
2017-09-10T01:19:28.265Z,10.32
2017-09-10T01:20:23.573Z,10.30
2017-09-10T01:21:17.289Z,10.33
2017-09-10T01:22:05.369Z,10.37
2017-09-10T01:22:59.335Z,10.35
2017-09-10T01:23:53.390Z,10.34
2017-09-10T01:24:41.435Z,10.31
2017-09-10T01:25:29.494Z,10.30
2017-09-10T01:26:17.550Z,10.35
2017-09-10T01:27:17.492Z,10.28
2017-09-10T01:28:11.651Z,10.24
2017-09-10T01:29:05.700Z,10.21
2017-09-10T01:30:05.592Z,10.18
2017-09-10T01:30:54.824Z,10.15
2017-09-10T01:31:48.722Z,10.13
2017-09-10T01:32:37.771Z,10.10
2017-09-10T01:33:25.781Z,10.11
2017-09-10T01:34:19.924Z,10.10
2017-09-10T01:35:07.920Z,10.09
2017-09-10T01:35:57.237Z,10.06
2017-09-10T01:36:44.917Z,10.08
2017-09-10T01:37:33.295Z,10.10
2017-09-10T01:38:22.017Z,10.14
2017-09-10T01:39:10.012Z,10.18
2017-09-10T01:39:59.076Z,10.22
2017-09-10T01:40:48.148Z,10.22
2017-09-10T01:41:37.195Z,10.20
2017-09-10T01:42:25.232Z,10.19
2017-09-10T01:43:19.216Z,10.15
2017-09-10T01:44:07.370Z,10.10
2017-09-10T01:45:01.297Z,10.06
2017-09-10T01:45:55.347Z,10.02
2017-09-10T01:46:49.445Z,10.06
2017-09-10T01:47:37.501Z,10.09
2017-09-10T01:48:31.418Z,10.10
2017-09-10T01:49:19.564Z,10.13
2017-09-10T01:50:07.855Z,10.14
2017-09-10T01:50:56.616Z,10.09
2017-09-10T01:51:44.655Z,10.08
2017-09-10T01:52:32.719Z,10.08
2017-09-10T01:53:20.722Z,10.07
2017-09-10T01:54:09.762Z,10.05
2017-09-10T01:54:57.866Z,10.04
2017-09-10T01:55:46.902Z,9.98
2017-09-10T01:56:34.820Z,9.98
2017-09-10T01:57:28.952Z,9.97
2017-09-10T01:58:16.956Z,9.96
2017-09-10T01:59:10.974Z,10.00
2017-09-10T01:59:59.100Z,10.02
2017-09-10T02:00:53.064Z,10.06
2017-09-10T02:01:48.089Z,10.08
2017-09-10T02:02:36.151Z,10.06
2017-09-10T02:03:30.144Z,10.06
2017-09-10T02:04:18.222Z,10.05
2017-09-10T02:05:12.435Z,10.06
2017-09-10T02:06:00.562Z,10.06
2017-09-10T02:06:54.293Z,10.06
2017-09-10T02:07:42.331Z,10.06
2017-09-10T02:08:30.443Z,10.04
2017-09-10T02:09:18.431Z,10.05
2017-09-10T02:10:12.664Z,10.03
2017-09-10T02:11:01.481Z,10.02
2017-09-10T02:11:49.538Z,10.00
2017-09-10T02:12:38.541Z,9.98
2017-09-10T02:13:26.611Z,9.92
2017-09-10T02:14:14.673Z,9.90
2017-09-10T02:15:02.694Z,9.88
2017-09-10T02:15:51.874Z,9.82
2017-09-10T02:16:39.716Z,9.80
2017-09-10T02:17:27.825Z,9.80
2017-09-10T02:18:16.894Z,9.78
2017-09-10T02:19:04.937Z,9.80
2017-09-10T02:19:52.972Z,9.80
2017-09-10T02:20:42.004Z,9.81
2017-09-10T02:21:30.185Z,9.86
2017-09-10T02:22:18.039Z,9.87
2017-09-10T02:23:06.102Z,9.86
2017-09-10T02:23:54.150Z,9.86
2017-09-10T02:24:42.094Z,9.84
2017-09-10T02:25:30.490Z,9.79
2017-09-10T02:26:18.197Z,9.80
2017-09-10T02:27:07.370Z,9.78
2017-09-10T02:27:55.405Z,9.78
2017-09-10T02:28:43.317Z,9.76
2017-09-10T02:29:31.665Z,9.74
2017-09-10T02:30:20.426Z,9.73
2017-09-10T02:31:08.507Z,9.73
2017-09-10T02:31:57.477Z,9.77
2017-09-10T02:32:45.559Z,9.80
2017-09-10T02:33:33.690Z,9.82
2017-09-10T02:34:21.641Z,9.82
2017-09-10T02:35:10.685Z,9.83
2017-09-10T02:35:59.038Z,9.80
2017-09-10T02:36:48.110Z,9.78
2017-09-10T02:37:35.764Z,9.79
2017-09-10T02:38:23.870Z,9.74
2017-09-10T02:39:12.860Z,9.73
2017-09-10T02:40:00.897Z,9.72
2017-09-10T02:40:49.017Z,9.71
2017-09-10T02:41:37.983Z,9.72
2017-09-10T02:42:26.077Z,9.74
2017-09-10T02:43:14.007Z,9.74
2017-09-10T02:44:03.123Z,9.74
2017-09-10T02:44:51.116Z,9.72
2017-09-10T02:45:39.430Z,9.70
2017-09-10T02:46:28.242Z,9.72
2017-09-10T02:47:16.313Z,9.71
2017-09-10T02:48:04.386Z,9.68
2017-09-10T02:48:53.382Z,9.69
2017-09-10T02:49:41.412Z,9.71
2017-09-10T02:50:29.456Z,9.72
2017-09-10T02:51:18.502Z,9.74
2017-09-10T02:52:06.508Z,9.74
2017-09-10T02:52:54.576Z,9.73
2017-09-10T02:53:43.612Z,9.74
2017-09-10T02:54:31.608Z,9.73
2017-09-10T02:55:19.852Z,9.71
2017-09-10T02:56:08.686Z,9.70
2017-09-10T02:56:56.766Z,9.68
2017-09-10T02:57:44.829Z,9.69
2017-09-10T02:58:33.865Z,9.69
2017-09-10T02:59:21.926Z,9.68
2017-09-10T03:00:09.956Z,9.68
2017-09-10T03:00:59.228Z,9.70
2017-09-10T03:01:47.003Z,9.76
2017-09-10T03:02:34.990Z,9.81
2017-09-10T03:03:24.050Z,9.84
2017-09-10T03:04:12.180Z,9.84
2017-09-10T03:05:00.225Z,9.84
2017-09-10T03:05:49.373Z,9.82
2017-09-10T03:06:37.253Z,9.81
2017-09-10T03:07:25.323Z,9.78
2017-09-10T03:08:14.372Z,9.72
2017-09-10T03:09:02.346Z,9.72
2017-09-10T03:09:50.352Z,9.70
2017-09-10T03:10:39.703Z,9.67
2017-09-10T03:11:27.468Z,9.64
2017-09-10T03:12:15.566Z,9.62
2017-09-10T03:13:04.472Z,9.61
2017-09-10T03:13:52.562Z,9.66
2017-09-10T03:14:40.681Z,9.67
2017-09-10T03:15:29.719Z,9.64
2017-09-10T03:16:17.694Z,9.66
2017-09-10T03:17:05.768Z,9.64
2017-09-10T03:17:54.788Z,9.63
2017-09-10T03:18:42.831Z,9.65
2017-09-10T03:19:30.940Z,9.62
2017-09-10T03:20:19.927Z,9.62
2017-09-10T03:21:07.964Z,9.65
2017-09-10T03:21:56.000Z,9.68
2017-09-10T03:22:45.001Z,9.68
2017-09-10T03:23:33.067Z,9.68
2017-09-10T03:24:21.061Z,9.66
2017-09-10T03:25:10.123Z,9.66
2017-09-10T03:25:58.243Z,9.63
2017-09-10T03:26:46.352Z,9.66
2017-09-10T03:27:35.225Z,9.65
2017-09-10T03:28:23.350Z,9.65
2017-09-10T03:29:11.356Z,9.64
2017-09-10T03:30:00.465Z,9.61
2017-09-10T03:30:48.476Z,9.61
2017-09-10T03:31:36.465Z,9.60
2017-09-10T03:32:24.526Z,9.61
2017-09-10T03:33:13.588Z,9.62
2017-09-10T03:34:01.550Z,9.64
2017-09-10T03:34:49.556Z,9.66
2017-09-10T03:35:38.626Z,9.64
2017-09-10T03:36:26.681Z,9.62
2017-09-10T03:37:15.698Z,9.61
2017-09-10T03:38:03.833Z,9.60
2017-09-10T03:38:52.026Z,9.64
2017-09-10T03:39:40.838Z,9.63
2017-09-10T03:40:28.870Z,9.62
2017-09-10T03:41:16.955Z,9.65
2017-09-10T03:42:04.973Z,9.68
2017-09-10T03:42:52.988Z,9.67
2017-09-10T03:43:47.053Z,9.68
2017-09-10T03:44:36.160Z,9.68
2017-09-10T03:45:24.233Z,9.66
2017-09-10T03:46:12.117Z,9.67
2017-09-10T03:47:00.191Z,9.66
2017-09-10T03:47:54.238Z,9.64
2017-09-10T03:48:43.253Z,9.64
2017-09-10T03:49:31.517Z,9.62
2017-09-10T03:50:19.397Z,9.61
2017-09-10T03:51:08.333Z,9.60
2017-09-10T03:51:56.410Z,9.61
2017-09-10T03:52:44.432Z,9.64
2017-09-10T03:53:33.487Z,9.64
2017-09-10T03:54:21.612Z,9.62
2017-09-10T03:55:09.525Z,9.64
2017-09-10T03:55:58.653Z,9.62
2017-09-10T03:56:46.626Z,9.65
2017-09-10T03:57:34.711Z,9.64
2017-09-10T03:58:23.723Z,9.66
2017-09-10T03:59:11.860Z,9.65
2017-09-10T03:59:59.791Z,9.66
2017-09-10T04:00:48.865Z,9.62
2017-09-10T04:01:36.870Z,9.62
2017-09-10T04:02:24.920Z,9.57
2017-09-10T04:03:13.947Z,9.53
2017-09-10T04:04:02.055Z,9.49
2017-09-10T04:04:50.099Z,9.54
2017-09-10T04:05:39.070Z,9.52
2017-09-10T04:06:27.099Z,9.54
2017-09-10T04:07:15.263Z,9.58
2017-09-10T04:08:16.127Z,9.66
2017-09-10T04:09:17.191Z,9.63
2017-09-10T04:10:11.275Z,9.64
2017-09-10T04:11:11.260Z,9.65
2017-09-10T04:12:06.374Z,9.65
2017-09-10T04:13:01.535Z,9.62
2017-09-10T04:14:01.367Z,9.57
2017-09-10T04:14:56.427Z,9.59
2017-09-10T04:15:51.411Z,9.55
2017-09-10T04:16:51.440Z,9.54
2017-09-10T04:17:46.542Z,9.50
2017-09-10T04:18:41.589Z,9.49
2017-09-10T04:19:42.573Z,9.46
2017-09-10T04:20:43.815Z,9.43
2017-09-10T04:21:38.581Z,9.41
2017-09-10T04:22:32.694Z,9.38
2017-09-10T04:23:32.678Z,9.38
2017-09-10T04:24:32.695Z,9.37
2017-09-10T04:25:32.792Z,9.32
2017-09-10T04:26:38.725Z,9.31
2017-09-10T04:27:33.824Z,9.32
2017-09-10T04:28:33.785Z,9.37
2017-09-10T04:29:33.944Z,9.38
2017-09-10T04:30:39.913Z,9.40
2017-09-10T04:31:39.902Z,9.43
2017-09-10T04:32:40.027Z,9.46
2017-09-10T04:33:40.032Z,9.48
2017-09-10T04:34:34.052Z,9.51
2017-09-10T04:35:34.018Z,9.52
2017-09-10T04:36:29.044Z,9.57
2017-09-10T04:37:24.114Z,9.62
2017-09-10T04:38:24.123Z,9.65
2017-09-10T04:39:19.196Z,9.62
2017-09-10T04:40:14.097Z,9.57
2017-09-10T04:41:15.108Z,9.54
2017-09-10T04:42:15.204Z,9.48
2017-09-10T04:43:15.251Z,9.47
2017-09-10T04:44:10.290Z,9.46
2017-09-10T04:45:10.385Z,9.43
2017-09-10T04:46:10.380Z,9.42
2017-09-10T04:47:10.310Z,9.41
2017-09-10T04:48:10.420Z,9.39
2017-09-10T04:49:04.377Z,9.38
2017-09-10T04:50:04.393Z,9.40
2017-09-10T04:50:59.479Z,9.40
2017-09-10T04:51:59.537Z,9.44
2017-09-10T04:52:53.527Z,9.48
2017-09-10T04:53:53.586Z,9.48
2017-09-10T04:54:48.658Z,9.56
2017-09-10T04:55:48.659Z,9.61
2017-09-10T04:56:48.692Z,9.65
2017-09-10T04:57:48.701Z,9.63
2017-09-10T04:58:42.714Z,9.66
2017-09-10T04:59:42.788Z,9.68
2017-09-10T05:00:37.802Z,9.73
2017-09-10T05:01:31.816Z,9.77
2017-09-10T05:02:20.871Z,9.72
2017-09-10T05:03:09.973Z,9.73
2017-09-10T05:03:57.976Z,9.71
2017-09-10T05:04:59.024Z,9.70
2017-09-10T05:05:54.023Z,9.66
2017-09-10T05:06:48.003Z,9.70
2017-09-10T05:07:36.064Z,9.71
2017-09-10T05:08:30.108Z,9.72
2017-09-10T05:09:24.171Z,9.76
2017-09-10T05:10:12.267Z,9.76
2017-09-10T05:11:06.227Z,9.79
2017-09-10T05:12:06.245Z,9.72
2017-09-10T05:13:01.314Z,9.69
2017-09-10T05:13:56.320Z,9.66
2017-09-10T05:14:57.325Z,9.68
2017-09-10T05:15:58.467Z,9.62
2017-09-10T05:16:59.437Z,9.61
2017-09-10T05:17:54.402Z,9.62
2017-09-10T05:18:48.481Z,9.59
2017-09-10T05:19:48.470Z,9.59
2017-09-10T05:20:43.539Z,9.61
2017-09-10T05:21:38.598Z,9.60
2017-09-10T05:22:38.697Z,9.66
2017-09-10T05:23:33.694Z,9.62
2017-09-10T05:24:28.687Z,9.62
2017-09-10T05:25:22.994Z,9.68
2017-09-10T05:26:22.751Z,9.68
2017-09-10T05:27:17.771Z,9.64
2017-09-10T05:28:17.821Z,9.67
2017-09-10T05:29:18.791Z,9.71
2017-09-10T05:30:12.846Z,9.67
2017-09-10T05:31:12.970Z,9.66
2017-09-10T05:32:07.959Z,9.75
2017-09-10T05:33:02.882Z,9.78
2017-09-10T05:33:56.923Z,9.75
2017-09-10T05:34:58.007Z,9.77
2017-09-10T05:35:58.009Z,9.74
2017-09-10T05:36:58.162Z,9.80
2017-09-10T05:37:58.067Z,9.86
2017-09-10T05:38:58.150Z,9.85
2017-09-10T05:39:58.127Z,9.97
2017-09-10T05:40:52.271Z,10.00
2017-09-10T05:41:53.224Z,10.07
2017-09-10T05:42:53.278Z,10.20
2017-09-10T05:43:53.193Z,10.36
2017-09-10T05:44:53.255Z,10.44
2017-09-10T05:45:59.357Z,10.48
2017-09-10T05:46:53.389Z,10.46
2017-09-10T05:47:53.372Z,10.47
2017-09-10T05:48:47.433Z,10.46
2017-09-10T05:49:35.517Z,10.40
2017-09-10T05:50:35.483Z,10.42
2017-09-10T05:51:23.562Z,10.45
2017-09-10T05:52:17.579Z,10.62
2017-09-10T05:53:05.751Z,10.87
2017-09-10T05:53:53.653Z,11.12
2017-09-10T05:54:41.633Z,11.48
2017-09-10T05:55:30.708Z,11.66
2017-09-10T05:56:18.764Z,11.94
2017-09-10T05:57:07.776Z,12.12
2017-09-10T05:57:55.871Z,12.20
2017-09-10T05:58:44.898Z,12.20
2017-09-10T05:59:38.928Z,12.04
2017-09-10T06:00:28.011Z,12.16
2017-09-10T06:01:17.078Z,12.43
2017-09-10T06:02:05.053Z,12.55
2017-09-10T06:02:53.136Z,12.83
2017-09-10T06:03:53.143Z,12.74
2017-09-10T06:04:41.244Z,12.86
2017-09-10T06:05:29.298Z,12.85
2017-09-10T06:06:17.274Z,13.09
2017-09-10T06:07:06.360Z,13.18
2017-09-10T06:08:00.378Z,13.16
2017-09-10T06:08:55.465Z,12.61
2017-09-10T06:09:44.511Z,12.63
2017-09-10T06:10:32.462Z,12.98
2017-09-10T06:11:20.535Z,13.35
2017-09-10T06:12:09.523Z,13.19
2017-09-10T06:12:57.648Z,13.14
2017-09-10T06:13:51.648Z,13.14
2017-09-10T06:14:47.001Z,13.36
2017-09-10T06:15:41.732Z,13.33
2017-09-10T06:16:30.791Z,13.68
2017-09-10T06:17:18.823Z,13.97
2017-09-10T06:18:07.859Z,13.72
2017-09-10T06:18:56.932Z,13.68
2017-09-10T06:19:44.949Z,13.88
2017-09-10T06:20:39.088Z,13.90
2017-09-10T06:21:27.259Z,14.19
2017-09-10T06:22:27.061Z,13.79
2017-09-10T06:23:22.074Z,13.94
2017-09-10T06:24:28.166Z,13.79
2017-09-10T06:25:28.253Z,13.74
2017-09-10T06:26:29.343Z,13.85
2017-09-10T06:27:30.232Z,14.11
2017-09-10T06:28:30.221Z,13.81
2017-09-10T06:29:30.391Z,13.62
2017-09-10T06:30:30.367Z,13.58
2017-09-10T06:31:19.450Z,13.61
2017-09-10T06:32:14.450Z,13.75
2017-09-10T06:33:09.548Z,13.78
2017-09-10T06:34:04.570Z,13.74
2017-09-10T06:34:53.569Z,13.81
2017-09-10T06:35:47.585Z,13.78
2017-09-10T06:36:47.683Z,13.81
2017-09-10T06:37:35.699Z,13.84
2017-09-10T06:38:24.740Z,13.89
2017-09-10T06:39:19.696Z,13.80
2017-09-10T06:40:21.138Z,13.72
2017-09-10T06:41:09.816Z,13.66
2017-09-10T06:42:04.965Z,13.79
2017-09-10T06:42:58.932Z,13.80
2017-09-10T06:43:53.904Z,13.80
2017-09-10T06:44:49.055Z,13.68
2017-09-10T06:45:55.057Z,13.78
2017-09-10T06:46:49.411Z,13.86
2017-09-10T06:47:43.243Z,14.02
2017-09-10T06:48:31.409Z,14.20
2017-09-10T06:49:31.477Z,14.04
2017-09-10T06:50:25.547Z,13.98
2017-09-10T06:51:26.436Z,14.04
2017-09-10T06:52:21.480Z,14.13
2017-09-10T06:53:15.613Z,14.19
2017-09-10T06:54:15.602Z,14.35
2017-09-10T06:55:09.653Z,14.60
2017-09-10T06:55:57.583Z,14.86
2017-09-10T06:56:52.627Z,14.93
2017-09-10T06:57:46.647Z,15.14
2017-09-10T06:58:34.658Z,15.42
2017-09-10T06:59:22.852Z,15.45
2017-09-10T07:00:11.753Z,15.44
2017-09-10T07:01:00.840Z,15.55
2017-09-10T07:01:54.785Z,15.67
2017-09-10T07:02:54.810Z,15.69
2017-09-10T07:03:49.007Z,15.79
2017-09-10T07:04:43.186Z,15.60
2017-09-10T07:05:32.281Z,15.62
2017-09-10T07:06:26.256Z,15.62
2017-09-10T07:07:20.270Z,15.75
2017-09-10T07:08:15.321Z,16.00
2017-09-10T07:09:15.539Z,16.02
2017-09-10T07:10:10.447Z,15.76
2017-09-10T07:11:04.382Z,15.40
2017-09-10T07:11:58.552Z,15.33
2017-09-10T07:12:47.562Z,15.22
2017-09-10T07:13:41.637Z,15.25
2017-09-10T07:14:35.646Z,15.10
2017-09-10T07:15:29.816Z,15.38
2017-09-10T07:16:17.757Z,16.06
2017-09-10T07:17:11.864Z,16.27
2017-09-10T07:17:59.922Z,15.91
2017-09-10T07:18:59.866Z,16.25
2017-09-10T07:19:54.940Z,16.45
2017-09-10T07:20:49.992Z,16.00
2017-09-10T07:21:39.060Z,16.18
2017-09-10T07:22:39.112Z,15.94
2017-09-10T07:23:28.147Z,15.08
2017-09-10T07:24:17.123Z,14.63
2017-09-10T07:25:11.314Z,14.39
2017-09-10T07:26:11.274Z,14.39
2017-09-10T07:27:06.398Z,14.75
2017-09-10T07:28:00.418Z,14.30
2017-09-10T07:29:00.470Z,14.08
2017-09-10T07:29:48.453Z,14.27
2017-09-10T07:30:36.504Z,14.22
2017-09-10T07:31:30.629Z,13.92
2017-09-10T07:32:18.696Z,14.48
2017-09-10T07:33:13.729Z,14.33
2017-09-10T07:34:07.784Z,14.07
2017-09-10T07:35:07.798Z,14.13
2017-09-10T07:36:01.719Z,13.92
2017-09-10T07:36:56.718Z,13.73
2017-09-10T07:37:51.658Z,13.12
2017-09-10T07:38:51.792Z,12.75
2017-09-10T07:39:46.790Z,12.90
2017-09-10T07:40:40.957Z,12.80
2017-09-10T07:41:35.857Z,12.62
2017-09-10T07:42:35.944Z,12.40
2017-09-10T07:43:24.917Z,12.46
2017-09-10T07:44:19.079Z,12.75
2017-09-10T07:45:13.376Z,12.74
2017-09-10T07:46:02.082Z,13.06
2017-09-10T07:46:51.345Z,12.99
2017-09-10T07:47:45.323Z,13.05
2017-09-10T07:48:40.561Z,13.12
2017-09-10T07:49:29.511Z,13.28
2017-09-10T07:50:17.424Z,13.89
2017-09-10T07:51:11.477Z,14.27
2017-09-10T07:52:06.491Z,13.84
2017-09-10T07:53:06.510Z,14.36
2017-09-10T07:54:01.509Z,14.50
2017-09-10T07:55:01.669Z,14.08
2017-09-10T07:55:56.686Z,13.83
2017-09-10T07:56:51.734Z,13.58
2017-09-10T07:57:39.819Z,14.00
2017-09-10T07:58:34.017Z,14.54
2017-09-10T07:59:22.826Z,14.74
2017-09-10T08:00:11.012Z,15.09
2017-09-10T08:00:59.168Z,15.25
2017-09-10T08:01:48.262Z,16.38
2017-09-10T08:02:43.304Z,16.35
2017-09-10T08:03:32.396Z,16.90
2017-09-10T08:04:26.437Z,17.82
2017-09-10T08:05:26.490Z,18.02
2017-09-10T08:06:20.602Z,18.35
2017-09-10T08:07:20.611Z,18.62
2017-09-10T08:08:14.597Z,19.17
2017-09-10T08:09:03.696Z,18.80
2017-09-10T08:09:57.764Z,19.16
2017-09-10T08:10:52.730Z,18.80
2017-09-10T08:11:46.811Z,18.65
2017-09-10T08:12:41.883Z,18.62
2017-09-10T08:13:41.812Z,18.10
2017-09-10T08:14:42.025Z,17.60
2017-09-10T08:15:41.989Z,16.89
2017-09-10T08:16:42.048Z,16.97
2017-09-10T08:17:42.051Z,17.16
2017-09-10T08:18:36.090Z,16.15
2017-09-10T08:19:30.124Z,15.51
2017-09-10T08:20:24.327Z,15.87
2017-09-10T08:21:25.269Z,16.20
2017-09-10T08:22:13.323Z,15.90
2017-09-10T08:23:08.400Z,15.74
2017-09-10T08:24:14.384Z,16.08
2017-09-10T08:25:08.496Z,16.60
2017-09-10T08:26:03.561Z,17.23
2017-09-10T08:26:57.608Z,17.43
2017-09-10T08:27:52.723Z,18.44
2017-09-10T08:28:52.671Z,19.32
2017-09-10T08:29:52.827Z,19.79
2017-09-10T08:30:46.781Z,20.27
2017-09-10T08:31:40.876Z,20.84
2017-09-10T08:32:34.881Z,21.43
2017-09-10T08:33:23.997Z,21.58
2017-09-10T08:34:18.033Z,21.10
2017-09-10T08:35:07.098Z,20.82
2017-09-10T08:36:01.153Z,20.60
2017-09-10T08:37:01.207Z,20.27
2017-09-10T08:37:49.201Z,19.82
2017-09-10T08:38:49.302Z,18.97
2017-09-10T08:39:43.304Z,18.33
2017-09-10T08:40:37.294Z,17.37
2017-09-10T08:41:31.405Z,16.61
2017-09-10T08:42:32.389Z,15.66
2017-09-10T08:43:27.553Z,14.48
2017-09-10T08:44:22.608Z,14.93
2017-09-10T08:45:17.578Z,15.23
2017-09-10T08:46:06.754Z,15.18
2017-09-10T08:47:00.809Z,15.80
2017-09-10T08:47:54.831Z,16.54
2017-09-10T08:48:49.874Z,17.54
2017-09-10T08:49:43.877Z,18.01
2017-09-10T08:50:43.866Z,17.60
2017-09-10T08:51:32.962Z,17.87
2017-09-10T08:52:27.075Z,18.33
2017-09-10T08:53:27.011Z,17.97
2017-09-10T08:54:15.190Z,17.53
2017-09-10T08:55:16.153Z,18.77
2017-09-10T08:56:10.285Z,18.60
2017-09-10T08:57:10.326Z,18.75
2017-09-10T08:58:04.396Z,19.64
2017-09-10T08:59:04.384Z,19.33
2017-09-10T08:59:59.446Z,18.82
2017-09-10T09:00:53.255Z,18.00
2017-09-10T09:01:41.503Z,17.60
2017-09-10T09:02:35.425Z,17.20
2017-09-10T09:03:29.589Z,17.58
2017-09-10T09:04:24.665Z,18.41
2017-09-10T09:05:19.692Z,18.81
2017-09-10T09:06:08.871Z,19.36
2017-09-10T09:07:08.871Z,19.92
2017-09-10T09:08:04.016Z,20.48
2017-09-10T09:08:58.048Z,20.81
2017-09-10T09:09:46.060Z,21.17
2017-09-10T09:10:46.324Z,20.87
2017-09-10T09:11:41.163Z,20.63
2017-09-10T09:12:35.207Z,21.00
2017-09-10T09:13:35.232Z,21.26
2017-09-10T09:14:23.335Z,21.75
2017-09-10T09:15:23.425Z,22.24
2017-09-10T09:16:18.433Z,22.26
2017-09-10T09:17:12.438Z,22.25
2017-09-10T09:18:00.510Z,22.55
2017-09-10T09:18:54.632Z,22.35
2017-09-10T09:19:42.781Z,22.14
2017-09-10T09:20:36.724Z,22.49
2017-09-10T09:21:25.780Z,22.71
2017-09-10T09:22:14.825Z,22.62
2017-09-10T09:23:09.912Z,22.66
2017-09-10T09:24:04.864Z,22.94
2017-09-10T09:25:00.011Z,23.15
2017-09-10T09:26:00.015Z,23.01
2017-09-10T09:26:49.165Z,23.05
2017-09-10T09:27:38.208Z,23.02
2017-09-10T09:28:33.238Z,22.88
2017-09-10T09:29:33.286Z,22.64
2017-09-10T09:30:28.356Z,22.81
2017-09-10T09:31:22.466Z,22.47
2017-09-10T09:32:22.505Z,21.94
2017-09-10T09:33:11.486Z,22.12
2017-09-10T09:34:05.595Z,22.38
2017-09-10T09:34:59.637Z,22.44
2017-09-10T09:35:54.704Z,22.94
2017-09-10T09:36:43.693Z,23.17
2017-09-10T09:37:32.912Z,23.26
2017-09-10T09:38:27.932Z,23.16
2017-09-10T09:39:21.905Z,23.11
2017-09-10T09:40:16.965Z,23.16
2017-09-10T09:41:05.077Z,22.92
2017-09-10T09:42:00.103Z,22.57
2017-09-10T09:42:54.223Z,21.85
2017-09-10T09:43:43.221Z,21.46
2017-09-10T09:44:32.313Z,21.77
2017-09-10T09:45:32.384Z,21.91
2017-09-10T09:46:27.385Z,21.61
2017-09-10T09:47:16.508Z,21.78
2017-09-10T09:48:05.594Z,22.03
2017-09-10T09:49:00.569Z,21.38
2017-09-10T09:49:48.675Z,21.46
2017-09-10T09:50:48.660Z,21.57
2017-09-10T09:51:36.695Z,21.64
2017-09-10T09:52:30.792Z,21.94
2017-09-10T09:53:25.898Z,22.28
2017-09-10T09:54:20.913Z,22.31
2017-09-10T09:55:15.004Z,22.19
2017-09-10T09:56:15.034Z,22.32
2017-09-10T09:57:09.096Z,23.05
2017-09-10T09:58:03.193Z,23.25
2017-09-10T09:58:52.307Z,23.44
2017-09-10T09:59:47.314Z,23.10
2017-09-10T10:00:36.411Z,22.72
2017-09-10T10:01:30.367Z,22.93
2017-09-10T10:02:25.464Z,22.44
2017-09-10T10:03:19.540Z,21.97
2017-09-10T10:04:14.628Z,21.32
2017-09-10T10:05:09.676Z,20.79
2017-09-10T10:06:03.709Z,20.78
2017-09-10T10:06:57.729Z,20.64
2017-09-10T10:07:51.919Z,20.16
2017-09-10T10:08:45.819Z,19.96
2017-09-10T10:09:41.001Z,19.52
2017-09-10T10:10:35.019Z,19.14
2017-09-10T10:11:30.018Z,18.71
2017-09-10T10:12:19.165Z,18.35
2017-09-10T10:13:14.141Z,18.24
2017-09-10T10:14:14.203Z,18.66
2017-09-10T10:15:03.356Z,19.28
2017-09-10T10:15:58.426Z,19.87
2017-09-10T10:16:52.369Z,19.92
2017-09-10T10:17:53.405Z,19.52
2017-09-10T10:18:42.463Z,19.14
2017-09-10T10:19:37.556Z,18.84
2017-09-10T10:20:31.670Z,18.95
2017-09-10T10:21:26.782Z,19.44
2017-09-10T10:22:26.648Z,19.95
2017-09-10T10:23:20.820Z,20.68
2017-09-10T10:24:14.833Z,20.74
2017-09-10T10:25:03.934Z,20.72
2017-09-10T10:25:52.976Z,20.94
2017-09-10T10:26:47.989Z,21.12
2017-09-10T10:27:36.075Z,21.38
2017-09-10T10:28:31.159Z,21.89
2017-09-10T10:29:26.129Z,22.55
2017-09-10T10:30:26.283Z,23.01
2017-09-10T10:31:15.291Z,23.39
2017-09-10T10:32:04.365Z,23.48
2017-09-10T10:32:58.405Z,23.38
2017-09-10T10:33:53.509Z,23.66
2017-09-10T10:34:47.544Z,23.47
2017-09-10T10:35:41.556Z,23.46
2017-09-10T10:36:35.615Z,23.20
2017-09-10T10:37:29.718Z,23.24
2017-09-10T10:38:30.736Z,22.39
2017-09-10T10:39:19.802Z,22.10
2017-09-10T10:40:14.808Z,21.75
2017-09-10T10:41:03.962Z,21.41
2017-09-10T10:41:58.969Z,20.96
2017-09-10T10:42:59.002Z,20.70
2017-09-10T10:43:53.036Z,20.98
2017-09-10T10:44:48.086Z,21.61
2017-09-10T10:45:48.137Z,22.00
2017-09-10T10:46:42.164Z,21.51
2017-09-10T10:47:31.273Z,21.44
2017-09-10T10:48:31.320Z,21.84
2017-09-10T10:49:25.419Z,22.32
2017-09-10T10:50:19.369Z,22.55
2017-09-10T10:51:14.544Z,22.53
2017-09-10T10:52:08.568Z,22.85
2017-09-10T10:52:57.677Z,23.46
2017-09-10T10:53:45.648Z,23.75
2017-09-10T10:54:33.758Z,24.03
2017-09-10T10:55:27.833Z,24.23
2017-09-10T10:56:22.886Z,24.01
2017-09-10T10:57:11.984Z,23.94
2017-09-10T10:58:06.060Z,24.13
2017-09-10T10:59:00.013Z,24.44
2017-09-10T10:59:49.087Z,24.32
2017-09-10T11:00:43.265Z,24.44
2017-09-10T11:01:32.191Z,24.30
2017-09-10T11:02:26.315Z,24.70
2017-09-10T11:03:20.316Z,24.92
2017-09-10T11:04:14.322Z,24.74
2017-09-10T11:05:14.481Z,24.30
2017-09-10T11:06:09.440Z,24.70
2017-09-10T11:06:57.626Z,24.76
2017-09-10T11:07:52.670Z,24.88
2017-09-10T11:08:47.695Z,24.73
2017-09-10T11:09:41.780Z,24.56
2017-09-10T11:10:30.945Z,24.12
2017-09-10T11:11:19.878Z,23.86
2017-09-10T11:12:13.965Z,23.55
2017-09-10T11:13:01.961Z,23.68
2017-09-10T11:13:56.064Z,23.71
2017-09-10T11:14:51.104Z,23.82
2017-09-10T11:15:39.244Z,24.14
2017-09-10T11:16:33.168Z,24.28
2017-09-10T11:17:27.300Z,24.11
2017-09-10T11:18:21.275Z,24.20
2017-09-10T11:19:16.387Z,24.50
2017-09-10T11:20:05.347Z,24.95
2017-09-10T11:20:59.492Z,25.31